CPX974 Details

Departure: Schiphol International Airport (EHAM)
Arrival: Seattle-Tacoma International Airport (KSEA) at N/A
Notes: SEASONAL FLIGHT | PERISHABLE CARGO


Current Weather Information
EHAM 230655Z 08002KT CAVOK 09/08 Q1019 NOSIG
KSEA 230653Z 03008KT 10SM FEW027 11/07 A3045 RMK AO2 SLP319 T01060067 $